createdAt,value
2023-05-08T00:05:07.995Z,20.6
2023-05-08T00:10:59.970Z,20.6
2023-05-08T00:16:51.387Z,20.6
2023-05-08T00:22:43.404Z,20.6
2023-05-08T00:28:35.463Z,20.5
2023-05-08T00:34:11.796Z,20.6
2023-05-08T00:40:02.642Z,20.5
2023-05-08T00:45:54.658Z,20.6
2023-05-08T00:51:30.471Z,20.6
2023-05-08T00:56:50.119Z,20.5
2023-05-08T01:02:27.592Z,20.6
2023-05-08T01:07:48.110Z,20.5
2023-05-08T01:13:38.642Z,20.5
2023-05-08T01:19:30.517Z,20.6
2023-05-08T01:25:21.525Z,20.5
2023-05-08T01:31:13.079Z,20.4
2023-05-08T01:37:05.675Z,20.5
2023-05-08T01:42:57.912Z,20.5
2023-05-08T01:48:33.431Z,20.5
2023-05-08T01:54:26.819Z,20.4
2023-05-08T02:00:17.614Z,20.4
2023-05-08T02:06:09.258Z,20.4
2023-05-08T02:12:01.670Z,20.4
2023-05-08T02:17:53.670Z,20.4
2023-05-08T02:23:45.074Z,20.5
2023-05-08T02:29:37.228Z,20.4
2023-05-08T02:35:37.316Z,20.4
2023-05-08T02:41:28.480Z,20.4
2023-05-08T02:47:23.409Z,20.4
2023-05-08T02:53:15.234Z,20.4
2023-05-08T02:59:06.479Z,20.4
2023-05-08T03:04:59.395Z,20.4
2023-05-08T03:10:50.510Z,20.4
2023-05-08T03:16:41.709Z,20.4
2023-05-08T03:22:34.335Z,20.4
2023-05-08T03:28:25.053Z,20.4
2023-05-08T03:34:17.083Z,20.4
2023-05-08T03:40:08.748Z,20.4
2023-05-08T03:46:00.335Z,20.4
2023-05-08T03:51:52.024Z,20.4
2023-05-08T03:57:44.485Z,20.4
2023-05-08T04:03:35.779Z,20.4
2023-05-08T04:09:34.584Z,20.4
2023-05-08T04:15:29.745Z,20.4
2023-05-08T04:21:21.459Z,20.4
2023-05-08T04:27:12.612Z,20.4
2023-05-08T04:33:05.312Z,20.4
2023-05-08T04:38:57.126Z,20.4
2023-05-08T04:44:49.556Z,20.4
2023-05-08T04:50:42.802Z,20.4
2023-05-08T04:56:33.834Z,20.4
2023-05-08T05:02:25.011Z,20.4
2023-05-08T05:08:17.801Z,20.4
2023-05-08T05:14:10.296Z,20.4
2023-05-08T05:20:02.450Z,20.4
2023-05-08T05:25:54.401Z,20.4
2023-05-08T05:31:45.408Z,20.5
2023-05-08T05:37:37.725Z,20.4
2023-05-08T05:43:29.997Z,20.4
2023-05-08T05:49:23.811Z,20.6
2023-05-08T05:55:15.323Z,20.6
2023-05-08T06:01:07.981Z,20.5
2023-05-08T06:07:02.283Z,20.6
2023-05-08T06:12:53.422Z,20.6
2023-05-08T06:18:48.502Z,20.6
2023-05-08T06:24:39.814Z,20.6
2023-05-08T06:30:31.379Z,20.6
2023-05-08T06:36:27.243Z,20.7
2023-05-08T06:42:28.426Z,20.7
2023-05-08T06:48:20.641Z,20.7
2023-05-08T06:54:13.138Z,20.8
2023-05-08T07:00:13.958Z,20.7
2023-05-08T07:06:06.352Z,20.8
2023-05-08T07:11:58.991Z,20.8
2023-05-08T07:18:07.023Z,20.8
2023-05-08T07:24:00.639Z,20.8
2023-05-08T07:29:55.280Z,20.8
2023-05-08T07:35:47.208Z,20.8
2023-05-08T07:41:23.545Z,20.8
2023-05-08T07:47:12.818Z,20.8
2023-05-08T07:53:06.552Z,20.8
2023-05-08T07:58:57.877Z,20.8
2023-05-08T08:04:35.868Z,20.8
2023-05-08T08:10:28.437Z,20.8
2023-05-08T08:16:21.059Z,20.8
2023-05-08T08:22:14.818Z,20.8
2023-05-08T08:28:07.078Z,20.8
2023-05-08T08:34:11.956Z,20.8
2023-05-08T08:40:05.669Z,20.8
2023-05-08T08:45:46.246Z,20.8
2023-05-08T08:51:39.303Z,20.8
2023-05-08T08:57:31.931Z,20.8
2023-05-08T09:03:24.997Z,20.8
2023-05-08T09:09:19.671Z,20.8
2023-05-08T09:15:16.298Z,20.8
2023-05-08T09:21:09.719Z,20.8
2023-05-08T09:26:46.317Z,20.8
2023-05-08T09:32:39.923Z,20.9
2023-05-08T09:38:32.892Z,20.9
2023-05-08T09:44:25.050Z,20.9
2023-05-08T09:50:19.248Z,20.8
2023-05-08T09:56:12.930Z,20.8
2023-05-08T10:02:05.374Z,20.8
2023-05-08T10:08:02.155Z,20.8
2023-05-08T10:14:10.900Z,20.8
2023-05-08T10:20:02.346Z,20.9
2023-05-08T10:25:55.061Z,20.8
2023-05-08T10:32:02.398Z,20.8
2023-05-08T10:37:54.428Z,20.8
2023-05-08T10:43:47.844Z,20.8
2023-05-08T10:49:40.450Z,20.8
2023-05-08T10:55:33.377Z,20.8
2023-05-08T11:01:25.736Z,20.8
2023-05-08T11:07:31.349Z,20.8
2023-05-08T11:13:23.489Z,20.8
2023-05-08T11:19:27.511Z,20.8
2023-05-08T11:25:19.279Z,20.8
2023-05-08T11:31:11.410Z,20.9
2023-05-08T11:37:04.034Z,20.8
2023-05-08T11:42:55.702Z,20.8
2023-05-08T11:48:47.844Z,20.8
2023-05-08T11:54:43.108Z,20.8
2023-05-08T12:00:21.355Z,20.8
2023-05-08T12:06:32.689Z,20.9
2023-05-08T12:12:26.403Z,20.9
2023-05-08T12:18:18.048Z,20.8
2023-05-08T12:23:54.572Z,20.9
2023-05-08T12:29:46.661Z,20.8
2023-05-08T12:35:38.454Z,20.9
2023-05-08T12:41:30.113Z,20.9
2023-05-08T12:47:23.310Z,20.9
2023-05-08T12:52:59.931Z,20.9
2023-05-08T12:58:36.184Z,20.9
2023-05-08T13:04:42.641Z,20.9
2023-05-08T13:10:37.774Z,20.9
2023-05-08T13:16:30.331Z,20.9
2023-05-08T13:22:24.097Z,20.9
2023-05-08T13:28:15.670Z,20.9
2023-05-08T13:34:11.147Z,20.9
2023-05-08T13:40:07.287Z,20.9
2023-05-08T13:45:59.871Z,20.9
2023-05-08T13:51:56.591Z,20.9
2023-05-08T13:57:52.692Z,20.9
2023-05-08T14:03:59.906Z,20.9
2023-05-08T14:09:56.644Z,21.1
2023-05-08T14:15:53.831Z,21
2023-05-08T14:21:47.027Z,21
2023-05-08T14:27:39.922Z,20.9
2023-05-08T14:33:19.400Z,21
2023-05-08T14:38:55.818Z,21
2023-05-08T14:45:08.320Z,21
2023-05-08T15:13:01.726Z,21
2023-05-08T15:18:57.341Z,21
2023-05-08T15:24:49.091Z,21
2023-05-08T15:30:40.933Z,21
2023-05-08T15:36:22.633Z,21
2023-05-08T15:42:14.008Z,21
2023-05-08T15:48:17.756Z,21.1
2023-05-08T15:54:11.209Z,21
2023-05-08T16:00:04.056Z,21
2023-05-08T16:06:04.846Z,21
2023-05-08T16:11:59.868Z,21
2023-05-08T16:17:52.301Z,21
2023-05-08T16:23:29.297Z,21
2023-05-08T16:29:23.665Z,21
2023-05-08T16:35:19.543Z,21
2023-05-08T16:41:17.978Z,21
2023-05-08T16:47:21.256Z,21
2023-05-08T16:53:04.160Z,21
2023-05-08T16:58:49.392Z,21
2023-05-08T17:04:53.400Z,21
2023-05-08T17:10:53.807Z,21
2023-05-08T17:16:55.078Z,21.1
2023-05-08T17:22:58.465Z,21
2023-05-08T17:28:41.734Z,21
2023-05-08T17:34:45.762Z,21
2023-05-08T17:40:49.192Z,21
2023-05-08T17:46:50.059Z,21
2023-05-08T17:52:52.443Z,21
2023-05-08T17:58:55.158Z,21
2023-05-08T18:04:54.217Z,21
2023-05-08T18:10:48.215Z,21
2023-05-08T18:16:42.200Z,21.1
2023-05-08T18:22:34.589Z,21
2023-05-08T18:28:26.904Z,21
2023-05-08T18:34:21.412Z,21.1
2023-05-08T18:40:15.737Z,21
2023-05-08T18:45:53.175Z,21.1
2023-05-08T18:51:47.353Z,21
2023-05-08T18:57:39.857Z,21
2023-05-08T19:03:33.531Z,21
2023-05-08T19:09:27.432Z,21
2023-05-08T19:15:19.864Z,21.1
2023-05-08T19:21:12.948Z,21.1
2023-05-08T19:27:07.541Z,21
2023-05-08T19:32:45.118Z,21.1
2023-05-08T19:38:37.964Z,21.1
2023-05-08T19:44:48.053Z,21
2023-05-08T19:50:46.777Z,21
2023-05-08T19:56:40.222Z,21.1
2023-05-08T20:02:34.417Z,21
2023-05-08T20:08:47.905Z,21
2023-05-08T20:14:25.297Z,21.1
2023-05-08T20:20:19.787Z,21
2023-05-08T20:26:11.166Z,21
2023-05-08T20:32:04.545Z,21
2023-05-08T20:37:58.654Z,21
2023-05-08T20:43:49.871Z,21
2023-05-08T20:49:42.334Z,21
2023-05-08T20:55:38.101Z,21
2023-05-08T21:01:19.266Z,21
2023-05-08T21:07:13.313Z,21
2023-05-08T21:13:06.972Z,21
2023-05-08T21:18:58.677Z,21
2023-05-08T21:24:50.401Z,20.9
2023-05-08T21:30:44.949Z,21
2023-05-08T21:36:37.320Z,20.9
2023-05-08T21:42:28.523Z,20.9
2023-05-08T21:48:22.158Z,20.9
2023-05-08T21:54:11.582Z,20.9
2023-05-08T22:00:03.892Z,21
2023-05-08T22:05:58.338Z,20.9
2023-05-08T22:11:50.362Z,20.9
2023-05-08T22:17:59.183Z,20.9
2023-05-08T22:23:52.798Z,20.9
2023-05-08T22:29:29.054Z,20.9
2023-05-08T22:35:20.845Z,20.9
2023-05-08T22:41:13.910Z,20.9
2023-05-08T22:47:05.158Z,20.9
2023-05-08T22:52:57.207Z,20.9
2023-05-08T22:58:51.258Z,20.9
2023-05-08T23:04:43.040Z,20.9
2023-05-08T23:10:34.561Z,20.9
2023-05-08T23:16:27.617Z,20.9
2023-05-08T23:22:18.521Z,20.9
2023-05-08T23:28:11.957Z,20.9
2023-05-08T23:34:05.467Z,20.9
2023-05-08T23:39:56.098Z,20.8
2023-05-08T23:45:47.777Z,20.9
2023-05-08T23:51:41.504Z,20.9
2023-05-08T23:57:33.193Z,20.8
